| time (UTC) | temp F | wind direction | speed knots | gust knots | rain 1hr in | rain 24hr in | rain mn in | humidity % | barometer mb |
| 20260505121530 | 53 | 0 | 0.0 | 0.9 | 0.00 | 0.00 | 0.00 | 87 | 1012.9 |
| 20260505120030 | 53 | 0 | 0.0 | 1.7 | 0.00 | 0.00 | 0.00 | 88 | 1012.8 |
| 20260505114532 | 53 | 0 | 0.0 | 0.9 | 0.00 | 0.00 | 0.00 | 89 | 1012.7 |
| 20260505113034 | 53 | 0 | 0.0 | 0.9 | 0.00 | 0.00 | 0.00 | 89 | 1012.7 |
| 20260505111533 | 53 | 0 | 0.0 | 1.7 | 0.00 | 0.00 | 0.00 | 90 | 1012.7 |
| 20260505110105 | 52 | 28 | 0.0 | 0.9 | 0.00 | 0.00 | 0.00 | 90 | 1012.6 |
| 20260505101549 | 51 | 0 | 0.0 | 0.9 | 0.00 | 0.00 | 0.00 | 90 | 1012.4 |
| 20260505100053 | 51 | 0 | 0.0 | 0.9 | 0.00 | 0.00 | 0.00 | 90 | 1012.4 |
| 20260505094533 | 50 | 0 | 0.0 | 0.9 | 0.00 | 0.00 | 0.00 | 90 | 1012.4 |
| 20260505093031 | 50 | 0 | 0.0 | 0.9 | 0.00 | 0.00 | 0.00 | 90 | 1012.2 |
| 20260505091530 | 50 | 0 | 0.0 | 0.9 | 0.00 | 0.00 | 0.00 | 90 | 1012.2 |
| 20260505090029 | 50 | 89 | 0.0 | 1.7 | 0.00 | 0.00 | 0.00 | 89 | 1012.0 |
| 20260505084531 | 50 | 0 | 0.0 | 0.9 | 0.00 | 0.00 | 0.00 | 89 | 1012.0 |
| 20260505083031 | 50 | 0 | 0.0 | 0.9 | 0.00 | 0.00 | 0.00 | 89 | 1011.9 |
| 20260505081535 | 50 | 0 | 0.0 | 0.9 | 0.00 | 0.00 | 0.00 | 88 | 1012.0 |
| 20260505080029 | 50 | 0 | 0.0 | 0.9 | 0.00 | 0.00 | 0.00 | 87 | 1012.1 |
| 20260505074529 | 50 | 0 | 0.0 | 0.9 | 0.00 | 0.00 | 0.00 | 87 | 1011.9 |
| 20260505073036 | 50 | 63 | 0.0 | 0.9 | 0.00 | 0.00 | 0.00 | 86 | 1011.9 |
| 20260505071531 | 51 | 89 | 0.0 | 1.7 | 0.00 | 0.00 | 0.00 | 86 | 1011.6 |
| 20260505070034 | 51 | 0 | 0.0 | 0.9 | 0.00 | 0.00 | 0.00 | 84 | 1011.4 |
| 20260505064532 | 52 | 0 | 0.0 | 0.9 | 0.00 | 0.00 | 0.00 | 84 | 1011.2 |
| 20260505063038 | 52 | 0 | 0.0 | 0.9 | 0.00 | 0.00 | 0.00 | 83 | 1011.2 |
| 20260505061538 | 53 | 0 | 0.0 | 0.9 | 0.00 | 0.00 | 0.00 | 82 | 1010.8 |
| 20260505060031 | 53 | 0 | 0.0 | 0.9 | 0.00 | 0.00 | 0.00 | 82 | 1010.7 |
| 20260505054543 | 54 | 0 | 0.0 | 0.9 | 0.00 | 0.00 | 0.00 | 80 | 1010.7 |
| 20260505053039 | 54 | 0 | 0.0 | 0.9 | 0.00 | 0.00 | 0.00 | 79 | 1010.6 |
| 20260505051539 | 55 | 0 | 0.0 | 0.9 | 0.00 | 0.00 | 0.00 | 77 | 1010.6 |
| 20260505041530 | 58 | 0 | 0.0 | 0.9 | 0.00 | 0.00 | 0.00 | 71 | 1010.1 |
| 20260505040031 | 59 | 0 | 0.0 | 1.7 | 0.00 | 0.00 | 0.00 | 69 | 1009.8 |
| 20260505034529 | 61 | 0 | 0.0 | 1.7 | 0.00 | 0.00 | 0.00 | 66 | 1009.6 |
| 20260505033028 | 62 | 135 | 0.0 | 1.7 | 0.00 | 0.00 | 0.00 | 65 | 1009.4 |
| 20260505031538 | 63 | 0 | 0.0 | 3.5 | 0.00 | 0.00 | 0.00 | 63 | 1009.1 |
| 20260505030030 | 65 | 253 | 0.0 | 4.3 | 0.00 | 0.00 | 0.00 | 60 | 1009.2 |
| 20260505024532 | 66 | 1 | 0.9 | 3.5 | 0.00 | 0.00 | 0.00 | 58 | 1008.9 |
| 20260505023033 | 67 | 286 | 0.0 | 2.6 | 0.00 | 0.00 | 0.00 | 55 | 1008.8 |
| 20260505021535 | 69 | 231 | 0.9 | 4.3 | 0.00 | 0.00 | 0.00 | 50 | 1008.9 |
| 20260505020037 | 71 | 269 | 0.9 | 6.1 | 0.00 | 0.00 | 0.00 | 46 | 1008.6 |
| 20260505014530 | 72 | 1 | 0.9 | 5.2 | 0.00 | 0.00 | 0.00 | 45 | 1008.6 |
| 20260505013031 | 73 | 216 | 1.7 | 5.2 | 0.00 | 0.00 | 0.00 | 45 | 1008.7 |
| 20260505011536 | 73 | 161 | 1.7 | 6.1 | 0.00 | 0.00 | 0.00 | 45 | 1008.6 |
| 20260505010048 | 74 | 257 | 1.7 | 5.2 | 0.00 | 0.00 | 0.00 | 43 | 1008.6 |
| 20260505004530 | 75 | 243 | 1.7 | 6.1 | 0.00 | 0.00 | 0.00 | 43 | 1008.5 |
| 20260505003037 | 77 | 199 | 0.9 | 6.1 | 0.00 | 0.00 | 0.00 | 42 | 1008.5 |
| 20260505001530 | 78 | 223 | 1.7 | 6.1 | 0.00 | 0.00 | 0.00 | 41 | 1008.2 |
| 20260505000041 | 78 | 279 | 1.7 | 7.0 | 0.00 | 0.00 | 0.00 | 40 | 1008.2 |
| 20260504234530 | 80 | 319 | 0.9 | 3.5 | 0.00 | 0.00 | 0.00 | 38 | 1008.3 |
| 20260504233033 | 79 | 135 | 0.9 | 4.3 | 0.00 | 0.00 | 0.00 | 41 | 1008.4 |
| 20260504231532 | 78 | 178 | 0.9 | 5.2 | 0.00 | 0.00 | 0.00 | 41 | 1008.4 |
| 20260504230040 | 77 | 178 | 0.9 | 2.6 | 0.00 | 0.00 | 0.00 | 42 | 1008.5 |
| 20260504224529 | 77 | 145 | 0.9 | 4.3 | 0.00 | 0.00 | 0.00 | 41 | 1008.6 |
| 20260504223031 | 77 | 264 | 2.6 | 6.1 | 0.00 | 0.00 | 0.00 | 41 | 1008.7 |
| 20260504221542 | 77 | 89 | 2.6 | 7.0 | 0.00 | 0.00 | 0.00 | 45 | 1008.8 |
| 20260504220035 | 77 | 279 | 0.9 | 7.0 | 0.00 | 0.00 | 0.00 | 44 | 1009.0 |
| 20260504214530 | 77 | 59 | 1.7 | 7.8 | 0.00 | 0.00 | 0.00 | 44 | 1009.1 |
| 20260504213046 | 77 | 152 | 0.9 | 7.0 | 0.00 | 0.00 | 0.00 | 46 | 1009.2 |
| 20260504211534 | 77 | 161 | 0.9 | 3.5 | 0.00 | 0.00 | 0.00 | 41 | 1009.5 |
| 20260504210034 | 76 | 1 | 0.9 | 6.1 | 0.00 | 0.00 | 0.00 | 44 | 1009.6 |
| 20260504204532 | 74 | 152 | 1.7 | 8.7 | 0.00 | 0.00 | 0.00 | 47 | 1009.8 |
| 20260504203044 | 74 | 197 | 1.7 | 5.2 | 0.00 | 0.00 | 0.00 | 46 | 1009.8 |
| 20260504201532 | 74 | 277 | 1.7 | 6.1 | 0.00 | 0.00 | 0.00 | 53 | 1009.9 |
| 20260504200030 | 73 | 269 | 2.6 | 6.1 | 0.00 | 0.00 | 0.00 | 49 | 1010.0 |
| 20260504194538 | 73 | 15 | 0.9 | 5.2 | 0.00 | 0.00 | 0.00 | 50 | 1009.9 |
| 20260504193032 | 72 | 219 | 1.7 | 7.8 | 0.00 | 0.00 | 0.00 | 53 | 1010.1 |
| 20260504191538 | 72 | 290 | 2.6 | 7.8 | 0.00 | 0.00 | 0.00 | 56 | 1010.1 |
| 20260504190031 | 72 | 240 | 1.7 | 6.1 | 0.00 | 0.00 | 0.00 | 53 | 1010.3 |
| 20260504184534 | 70 | 112 | 0.9 | 7.0 | 0.00 | 0.00 | 0.00 | 52 | 1010.3 |
| 20260504183030 | 70 | 314 | 0.9 | 2.6 | 0.00 | 0.00 | 0.00 | 55 | 1010.4 |
| 20260504181529 | 69 | 223 | 1.7 | 7.8 | 0.00 | 0.00 | 0.00 | 60 | 1010.5 |
| 20260504180038 | 68 | 46 | 0.9 | 6.1 | 0.00 | 0.00 | 0.00 | 62 | 1010.4 |
| 20260504174530 | 67 | 269 | 0.9 | 5.2 | 0.00 | 0.00 | 0.00 | 62 | 1010.4 |
| 20260504173032 | 67 | 262 | 1.7 | 4.3 | 0.00 | 0.00 | 0.00 | 59 | 1010.5 |
| 20260504171533 | 66 | 314 | 0.9 | 3.5 | 0.00 | 0.00 | 0.00 | 61 | 1010.4 |